createdAt,value
2024-01-18T00:01:40.462Z,34.50
2024-01-18T00:05:06.987Z,31.90
2024-01-18T00:08:33.116Z,31.90
2024-01-18T00:11:59.378Z,31.00
2024-01-18T00:15:25.718Z,31.70
2024-01-18T00:18:51.695Z,31.00
2024-01-18T00:22:18.175Z,32.20
2024-01-18T00:25:44.394Z,32.40
2024-01-18T00:29:10.623Z,31.80
2024-01-18T00:32:36.894Z,31.00
2024-01-18T00:36:03.139Z,32.60
2024-01-18T00:39:29.297Z,33.50
2024-01-18T00:42:55.574Z,33.10
2024-01-18T00:46:23.354Z,32.50
2024-01-18T00:49:49.102Z,33.20
2024-01-18T00:53:14.790Z,33.30
2024-01-18T00:56:41.188Z,33.60
2024-01-18T01:00:09.290Z,34.10
2024-01-18T01:03:35.564Z,35.40
2024-01-18T01:07:02.055Z,32.10
2024-01-18T01:10:28.535Z,33.60
2024-01-18T01:13:55.069Z,33.00
2024-01-18T01:17:20.973Z,34.30
2024-01-18T01:20:46.929Z,34.70
2024-01-18T01:24:12.984Z,34.30
2024-01-18T01:27:38.996Z,34.60
2024-01-18T01:31:05.738Z,34.70
2024-01-18T01:34:32.514Z,35.30
2024-01-18T01:37:58.672Z,36.50
2024-01-18T01:41:24.853Z,40.00
2024-01-18T01:44:51.516Z,39.60
2024-01-18T01:48:18.323Z,41.70
2024-01-18T01:51:50.236Z,42.50
2024-01-18T01:55:17.203Z,43.50
2024-01-18T01:58:43.041Z,41.00
2024-01-18T02:02:10.386Z,39.60
2024-01-18T02:05:36.618Z,38.90
2024-01-18T02:09:03.659Z,37.90
2024-01-18T02:12:30.930Z,38.00
2024-01-18T02:15:57.035Z,39.10
2024-01-18T02:19:22.958Z,38.80
2024-01-18T02:22:50.218Z,41.00
2024-01-18T02:26:16.868Z,40.00
2024-01-18T02:29:43.350Z,41.60
2024-01-18T02:33:09.431Z,40.80
2024-01-18T02:36:36.728Z,39.30
2024-01-18T02:40:03.153Z,40.20
2024-01-18T02:43:29.585Z,38.90
2024-01-18T02:46:56.286Z,38.90
2024-01-18T02:50:22.459Z,41.10
2024-01-18T02:53:48.694Z,40.40
2024-01-18T02:57:14.767Z,39.70
2024-01-18T03:00:41.292Z,39.10
2024-01-18T03:04:08.903Z,39.80
2024-01-18T03:07:34.782Z,39.70
2024-01-18T03:11:00.982Z,37.30
2024-01-18T03:14:26.928Z,37.40
2024-01-18T03:17:52.591Z,40.20
2024-01-18T03:21:19.360Z,36.90
2024-01-18T03:24:45.378Z,37.00
2024-01-18T03:28:11.205Z,37.60
2024-01-18T03:31:37.904Z,38.10
2024-01-18T03:35:03.400Z,38.80
2024-01-18T03:38:28.973Z,38.00
2024-01-18T03:41:55.070Z,40.20
2024-01-18T03:45:20.921Z,39.70
2024-01-18T03:48:46.936Z,39.90
2024-01-18T03:52:13.660Z,40.80
2024-01-18T03:55:40.152Z,39.50
2024-01-18T03:59:07.376Z,41.70
2024-01-18T04:02:33.388Z,40.90
2024-01-18T04:06:00.139Z,42.60
2024-01-18T04:09:26.540Z,40.70
2024-01-18T04:12:52.808Z,41.70
2024-01-18T04:16:18.635Z,42.50
2024-01-18T04:19:45.146Z,40.70
2024-01-18T04:23:11.541Z,42.20
2024-01-18T04:26:37.132Z,40.80
2024-01-18T04:30:07.208Z,41.80
2024-01-18T04:33:33.020Z,42.20
2024-01-18T04:36:58.908Z,43.20
2024-01-18T04:40:24.912Z,39.50
2024-01-18T04:43:50.869Z,39.10
2024-01-18T04:47:17.421Z,40.00
2024-01-18T04:50:43.339Z,39.40
2024-01-18T04:54:09.258Z,39.50
2024-01-18T04:57:37.025Z,40.00
2024-01-18T05:01:03.505Z,38.10
2024-01-18T05:04:30.668Z,40.70
2024-01-18T05:07:57.689Z,40.80
2024-01-18T05:11:23.825Z,42.00
2024-01-18T05:14:49.957Z,42.00
2024-01-18T05:18:16.190Z,40.90
2024-01-18T05:21:42.458Z,41.00
2024-01-18T05:25:09.821Z,40.10
2024-01-18T05:28:35.445Z,43.40
2024-01-18T05:32:01.847Z,43.90
2024-01-18T05:35:27.874Z,41.80
2024-01-18T05:38:54.511Z,41.20
2024-01-18T05:42:20.715Z,41.80
2024-01-18T05:45:46.520Z,41.50
2024-01-18T05:49:12.664Z,41.30
2024-01-18T05:52:38.837Z,41.80
2024-01-18T05:56:04.825Z,43.70
2024-01-18T05:59:30.900Z,41.80
2024-01-18T06:02:58.055Z,40.70
2024-01-18T06:06:24.009Z,38.30
2024-01-18T06:09:50.359Z,39.10
2024-01-18T06:13:16.761Z,38.00
2024-01-18T06:16:43.209Z,38.20
2024-01-18T06:20:11.094Z,39.00
2024-01-18T06:23:37.204Z,37.70
2024-01-18T06:27:03.839Z,38.00
2024-01-18T06:30:30.132Z,39.90
2024-01-18T06:33:57.648Z,41.20
2024-01-18T06:37:24.109Z,41.00
2024-01-18T06:40:50.229Z,40.70
2024-01-18T06:44:16.107Z,41.20
2024-01-18T06:47:42.089Z,41.50
2024-01-18T06:51:08.272Z,41.20
2024-01-18T06:54:34.312Z,41.80
2024-01-18T06:58:03.854Z,42.80
2024-01-18T07:01:30.331Z,43.10
2024-01-18T07:04:56.666Z,42.50
2024-01-18T07:08:22.479Z,43.60
2024-01-18T07:11:48.760Z,47.90
2024-01-18T07:15:15.294Z,45.60
2024-01-18T07:18:41.612Z,45.80
2024-01-18T07:22:09.149Z,52.10
2024-01-18T07:25:37.949Z,57.70
2024-01-18T07:29:04.389Z,50.00
2024-01-18T07:32:30.436Z,48.00
2024-01-18T07:35:56.279Z,43.50
2024-01-18T07:39:22.327Z,42.80
2024-01-18T07:42:48.770Z,42.50
2024-01-18T07:46:17.603Z,41.00
2024-01-18T07:49:50.066Z,42.40
2024-01-18T07:53:16.525Z,42.00
2024-01-18T07:56:43.584Z,40.20
2024-01-18T08:00:12.912Z,41.80
2024-01-18T08:03:39.542Z,42.70
2024-01-18T08:07:05.902Z,44.60
2024-01-18T08:10:32.217Z,45.70
2024-01-18T08:13:58.241Z,45.30
2024-01-18T08:17:23.899Z,46.10
2024-01-18T08:20:50.323Z,45.90
2024-01-18T08:24:16.372Z,47.00
2024-01-18T08:27:44.055Z,46.80
2024-01-18T08:31:10.046Z,47.20
2024-01-18T08:34:37.337Z,46.10
2024-01-18T08:38:03.521Z,45.40
2024-01-18T08:41:31.720Z,45.00
2024-01-18T08:44:58.179Z,45.20
2024-01-18T08:48:24.343Z,44.70
2024-01-18T08:51:49.997Z,44.70
2024-01-18T08:55:16.714Z,44.10
2024-01-18T08:58:42.761Z,44.40
2024-01-18T09:02:14.584Z,44.60
2024-01-18T09:05:47.441Z,45.40
2024-01-18T09:09:15.004Z,40.30
2024-01-18T09:12:40.758Z,43.00
2024-01-18T09:16:08.404Z,41.10
2024-01-18T09:19:35.496Z,40.00
2024-01-18T09:23:09.413Z,39.60
2024-01-18T09:26:39.515Z,38.50
2024-01-18T09:30:06.724Z,38.40
2024-01-18T09:33:32.271Z,39.10
2024-01-18T09:36:59.707Z,42.10
2024-01-18T09:40:30.266Z,43.00
2024-01-18T09:44:04.705Z,42.90
2024-01-18T09:47:31.263Z,45.70
2024-01-18T09:50:59.131Z,44.90
2024-01-18T09:54:25.244Z,41.90
2024-01-18T09:57:57.032Z,42.50
2024-01-18T10:01:25.302Z,42.10
2024-01-18T10:04:51.263Z,44.00
2024-01-18T10:08:17.978Z,38.70
2024-01-18T10:11:45.577Z,37.40
2024-01-18T10:15:13.202Z,38.90
2024-01-18T10:18:40.507Z,37.10
2024-01-18T10:22:08.692Z,36.70
2024-01-18T10:25:37.017Z,37.20
2024-01-18T10:29:04.512Z,37.80
2024-01-18T10:32:36.130Z,35.90
2024-01-18T10:36:02.605Z,36.80
2024-01-18T10:39:28.635Z,37.00
2024-01-18T10:42:54.906Z,35.10
2024-01-18T10:46:22.617Z,35.50
2024-01-18T10:49:48.914Z,37.10
2024-01-18T10:53:16.961Z,36.00
2024-01-18T10:56:42.813Z,33.10
2024-01-18T11:00:17.573Z,35.60
2024-01-18T11:03:47.928Z,35.60
2024-01-18T11:07:16.808Z,33.80
2024-01-18T11:10:43.685Z,31.10
2024-01-18T11:14:13.186Z,32.60
2024-01-18T11:17:44.648Z,32.70
2024-01-18T11:21:11.052Z,31.80
2024-01-18T11:24:38.348Z,31.30
2024-01-18T11:28:04.685Z,34.30
2024-01-18T11:31:52.756Z,33.30
2024-01-18T11:35:21.989Z,32.20
2024-01-18T11:38:49.809Z,33.00
2024-01-18T11:42:19.440Z,33.30
2024-01-18T11:45:50.465Z,31.40
2024-01-18T11:49:17.418Z,28.00
2024-01-18T11:52:45.804Z,28.70
2024-01-18T11:56:12.885Z,31.80
2024-01-18T11:59:39.371Z,33.40
2024-01-18T12:03:08.641Z,32.00
2024-01-18T12:06:35.262Z,31.00
2024-01-18T12:10:02.118Z,30.20
2024-01-18T12:13:29.789Z,26.40
2024-01-18T12:16:56.371Z,28.40
2024-01-18T12:20:22.618Z,26.10
2024-01-18T12:23:49.723Z,27.10
2024-01-18T12:27:17.006Z,27.90
2024-01-18T12:30:44.903Z,24.30
2024-01-18T12:34:11.972Z,25.10
2024-01-18T12:37:39.487Z,25.30
2024-01-18T12:41:06.555Z,25.90
2024-01-18T12:44:32.761Z,24.30
2024-01-18T12:47:59.047Z,22.00
2024-01-18T12:51:25.544Z,21.70
2024-01-18T12:54:52.103Z,21.80
2024-01-18T12:58:19.232Z,19.60
2024-01-18T13:01:52.777Z,20.70
2024-01-18T13:05:19.022Z,20.60
2024-01-18T13:08:45.305Z,21.40
2024-01-18T13:12:11.965Z,23.30
2024-01-18T13:15:40.129Z,22.40
2024-01-18T13:19:08.090Z,21.60
2024-01-18T13:22:34.620Z,21.40
2024-01-18T13:26:00.646Z,21.90
2024-01-18T13:29:26.918Z,21.30
2024-01-18T13:32:57.258Z,22.70
2024-01-18T13:36:23.697Z,22.50
2024-01-18T13:39:49.646Z,24.60
2024-01-18T13:43:15.948Z,24.50
2024-01-18T13:46:42.411Z,25.90
2024-01-18T13:50:10.225Z,24.80
2024-01-18T13:53:37.858Z,26.90
2024-01-18T13:57:04.673Z,25.70
2024-01-18T14:00:30.835Z,27.70
2024-01-18T14:03:57.307Z,26.80
2024-01-18T14:07:23.404Z,27.40
2024-01-18T14:10:49.791Z,27.10
2024-01-18T14:14:15.855Z,27.80
2024-01-18T14:17:41.515Z,31.20
2024-01-18T14:21:09.134Z,31.10
2024-01-18T14:24:35.322Z,32.00
2024-01-18T14:28:03.177Z,30.10
2024-01-18T14:31:29.701Z,30.30
2024-01-18T14:34:56.041Z,28.40
2024-01-18T14:38:22.824Z,27.40
2024-01-18T14:41:48.708Z,25.80
2024-01-18T14:45:15.160Z,24.50
2024-01-18T14:48:41.965Z,24.20
2024-01-18T14:52:12.233Z,26.00
2024-01-18T14:55:39.841Z,25.40
2024-01-18T14:59:06.140Z,25.50
2024-01-18T15:02:32.891Z,28.20
2024-01-18T15:05:59.223Z,27.20
2024-01-18T15:09:25.482Z,26.60
2024-01-18T15:12:52.491Z,28.00
2024-01-18T15:16:19.222Z,28.90
2024-01-18T15:19:45.829Z,27.60
2024-01-18T15:23:12.233Z,32.00
2024-01-18T15:26:37.862Z,30.40
2024-01-18T15:30:05.931Z,29.20
2024-01-18T15:33:32.001Z,30.10
2024-01-18T15:36:58.333Z,30.20
2024-01-18T15:40:24.706Z,30.60
2024-01-18T15:43:50.989Z,31.80
2024-01-18T15:47:16.560Z,31.60
2024-01-18T15:50:42.220Z,32.90
2024-01-18T15:54:08.626Z,32.10
2024-01-18T15:57:34.711Z,33.40
2024-01-18T16:01:02.060Z,33.50
2024-01-18T16:04:28.435Z,31.70
2024-01-18T16:07:54.662Z,32.00
2024-01-18T16:11:20.583Z,32.30
2024-01-18T16:14:48.273Z,31.50
2024-01-18T16:18:14.348Z,34.60
2024-01-18T16:21:40.087Z,38.70
2024-01-18T16:25:07.538Z,37.00
2024-01-18T16:28:34.802Z,37.20
2024-01-18T16:32:02.568Z,35.50
2024-01-18T16:35:30.980Z,34.70
2024-01-18T16:38:56.677Z,31.50
2024-01-18T16:42:22.299Z,31.40
2024-01-18T16:45:48.384Z,32.80
2024-01-18T16:49:14.984Z,31.50
2024-01-18T16:52:41.292Z,31.30
2024-01-18T16:56:08.108Z,31.20
2024-01-18T16:59:33.559Z,30.70
2024-01-18T17:02:59.400Z,32.00
2024-01-18T17:06:26.014Z,29.40
2024-01-18T17:09:52.987Z,30.80
2024-01-18T17:13:19.117Z,32.30
2024-01-18T17:16:45.251Z,31.50
2024-01-18T17:20:12.711Z,42.00
2024-01-18T17:23:39.170Z,38.40
2024-01-18T17:27:05.606Z,44.80
2024-01-18T17:30:31.746Z,42.20
2024-01-18T17:33:58.152Z,38.40
2024-01-18T17:37:24.452Z,40.40
2024-01-18T17:40:50.739Z,37.70
2024-01-18T17:44:18.176Z,35.10
2024-01-18T17:47:45.949Z,29.50
2024-01-18T17:51:16.535Z,27.90
2024-01-18T17:54:43.049Z,27.10
2024-01-18T17:58:08.773Z,27.50
2024-01-18T18:01:35.479Z,28.10
2024-01-18T18:05:01.450Z,28.30
2024-01-18T18:08:28.020Z,27.70
2024-01-18T18:11:55.152Z,29.20
2024-01-18T18:15:20.977Z,27.90
2024-01-18T18:18:46.741Z,27.10
2024-01-18T18:22:12.933Z,27.70
2024-01-18T18:25:39.074Z,32.10
2024-01-18T18:29:07.245Z,27.90
2024-01-18T18:32:34.339Z,29.80
2024-01-18T18:36:00.540Z,31.20
2024-01-18T18:39:26.991Z,26.10
2024-01-18T18:42:52.904Z,24.30
2024-01-18T18:46:19.417Z,25.60
2024-01-18T18:49:48.556Z,26.00
2024-01-18T18:53:14.895Z,24.90
2024-01-18T18:56:40.699Z,25.30
2024-01-18T19:00:07.503Z,25.20
2024-01-18T19:03:34.203Z,30.00
2024-01-18T19:07:01.574Z,27.80
2024-01-18T19:10:27.768Z,30.10
2024-01-18T19:13:55.094Z,27.40
2024-01-18T19:17:20.601Z,24.90
2024-01-18T19:20:46.832Z,25.40
2024-01-18T19:24:13.260Z,23.10
2024-01-18T19:27:39.829Z,24.10
2024-01-18T19:31:06.128Z,24.30
2024-01-18T19:34:32.175Z,26.70
2024-01-18T19:38:01.073Z,23.50
2024-01-18T19:41:29.043Z,17.80
2024-01-18T19:44:55.591Z,17.40
2024-01-18T19:48:21.449Z,14.90
2024-01-18T19:51:48.819Z,16.60
2024-01-18T19:55:14.693Z,17.70
2024-01-18T19:58:42.983Z,19.40
2024-01-18T20:02:09.651Z,18.30
2024-01-18T20:05:35.690Z,16.50
2024-01-18T20:09:02.071Z,17.60
2024-01-18T20:12:33.060Z,13.50
2024-01-18T20:15:59.609Z,14.30
2024-01-18T20:19:26.286Z,14.10
2024-01-18T20:22:52.375Z,13.60
2024-01-18T20:26:18.939Z,14.50
2024-01-18T20:29:46.354Z,15.10
2024-01-18T20:33:15.295Z,13.50
2024-01-18T20:36:41.609Z,12.90
2024-01-18T20:40:10.017Z,13.30
2024-01-18T20:43:36.085Z,13.80
2024-01-18T20:47:02.493Z,15.40
2024-01-18T20:50:28.989Z,14.60
2024-01-18T20:53:55.262Z,16.00
2024-01-18T20:57:21.504Z,14.40
2024-01-18T21:00:47.724Z,13.50
2024-01-18T21:04:15.364Z,14.70
2024-01-18T21:07:41.373Z,16.80
2024-01-18T21:11:07.596Z,15.60
2024-01-18T21:14:33.921Z,15.70
2024-01-18T21:18:00.054Z,15.60
2024-01-18T21:21:26.374Z,16.70
2024-01-18T21:24:52.438Z,14.70
2024-01-18T21:28:18.579Z,14.90
2024-01-18T21:31:45.668Z,13.90
2024-01-18T21:35:12.378Z,15.20
2024-01-18T21:38:40.607Z,16.30
2024-01-18T21:42:06.750Z,17.10
2024-01-18T21:45:32.753Z,17.40
2024-01-18T21:48:59.029Z,16.50
2024-01-18T21:52:27.512Z,15.30
2024-01-18T21:55:54.636Z,17.00
2024-01-18T21:59:28.593Z,14.30
2024-01-18T22:03:02.099Z,12.50
2024-01-18T22:06:28.133Z,14.50
2024-01-18T22:09:54.181Z,13.40
2024-01-18T22:13:19.853Z,12.40
2024-01-18T22:16:45.489Z,13.40
2024-01-18T22:20:14.598Z,13.40
2024-01-18T22:23:40.926Z,13.70
2024-01-18T22:27:07.124Z,13.20
2024-01-18T22:30:32.852Z,13.00
2024-01-18T22:33:58.954Z,14.20
2024-01-18T22:37:25.012Z,12.50
2024-01-18T22:40:51.352Z,14.40
2024-01-18T22:44:17.210Z,13.90
2024-01-18T22:47:42.982Z,13.40
2024-01-18T22:51:09.271Z,13.60
2024-01-18T22:54:36.012Z,15.30
2024-01-18T22:58:02.277Z,13.50
2024-01-18T23:01:28.628Z,15.50
2024-01-18T23:04:54.525Z,13.70
2024-01-18T23:08:21.458Z,14.00
2024-01-18T23:11:47.742Z,15.80
2024-01-18T23:15:14.636Z,14.50
2024-01-18T23:18:40.351Z,13.60
2024-01-18T23:22:06.568Z,14.20
2024-01-18T23:25:33.023Z,14.00
2024-01-18T23:28:59.623Z,14.10
2024-01-18T23:32:25.572Z,12.90
2024-01-18T23:35:52.371Z,12.60
2024-01-18T23:39:21.634Z,12.40
2024-01-18T23:42:48.045Z,12.60
2024-01-18T23:46:13.920Z,12.00
2024-01-18T23:49:40.328Z,11.60
2024-01-18T23:53:07.067Z,11.90
2024-01-18T23:56:33.256Z,12.10
2024-01-18T23:59:59.738Z,13.20
